createdAt,value
2022-12-11T00:01:10.760Z,99342.34
2022-12-11T00:03:39.362Z,99345.69
2022-12-11T00:06:09.203Z,99336.47
2022-12-11T00:08:39.090Z,99339.31
2022-12-11T00:11:09.661Z,99340.66
2022-12-11T00:13:37.711Z,99350.16
2022-12-11T00:16:06.179Z,99340.16
2022-12-11T00:18:34.304Z,99334.31
2022-12-11T00:21:02.751Z,99323.38
2022-12-11T00:23:31.560Z,99318.13
2022-12-11T00:26:01.081Z,99319.41
2022-12-11T00:28:29.070Z,99296.91
2022-12-11T00:30:57.069Z,99310.19
2022-12-11T00:33:25.069Z,99307.06
2022-12-11T00:35:53.028Z,99289.94
2022-12-11T00:38:22.547Z,99293.84
2022-12-11T00:40:50.582Z,99304.22
2022-12-11T00:43:20.097Z,99297.81
2022-12-11T00:45:49.244Z,99301.06
2022-12-11T00:48:17.306Z,99288.38
2022-12-11T00:50:45.363Z,99287.50
2022-12-11T00:53:13.554Z,99288.34
2022-12-11T00:55:43.459Z,99271.09
2022-12-11T00:58:11.926Z,99285.00
2022-12-11T01:00:43.607Z,99285.91
2022-12-11T01:03:14.284Z,99281.81
2022-12-11T01:05:42.822Z,99268.16
2022-12-11T01:08:11.569Z,99263.97
2022-12-11T01:10:39.739Z,99257.22
2022-12-11T01:13:08.709Z,99244.72
2022-12-11T01:15:42.850Z,99233.41
2022-12-11T01:18:12.333Z,99231.41
2022-12-11T01:20:42.701Z,99245.78
2022-12-11T01:23:14.215Z,99236.06
2022-12-11T01:25:43.121Z,99224.44
2022-12-11T01:28:11.613Z,99219.34
2022-12-11T01:30:41.652Z,99215.81
2022-12-11T01:33:11.560Z,99210.81
2022-12-11T01:35:41.100Z,99198.94
2022-12-11T01:38:09.129Z,99196.97
2022-12-11T01:40:37.220Z,99188.56
2022-12-11T01:43:05.205Z,99180.56
2022-12-11T01:45:40.666Z,99180.97
2022-12-11T01:48:13.035Z,99185.81
2022-12-11T01:50:45.637Z,99198.16
2022-12-11T01:53:19.078Z,99188.25
2022-12-11T01:55:49.048Z,99180.03
2022-12-11T01:58:19.691Z,99179.97
2022-12-11T02:00:48.021Z,99174.94
2022-12-11T02:03:17.779Z,99184.84
2022-12-11T02:05:45.850Z,99187.31
2022-12-11T02:08:14.285Z,99183.72
2022-12-11T02:10:50.722Z,99185.44
2022-12-11T02:13:28.147Z,99173.81
2022-12-11T02:16:02.488Z,99175.28
2022-12-11T02:18:37.707Z,99176.56
2022-12-11T02:21:14.545Z,99169.31
2022-12-11T02:24:05.248Z,99159.47
2022-12-11T02:26:53.472Z,99151.81
2022-12-11T02:29:28.609Z,99152.22
2022-12-11T02:32:02.854Z,99144.94
2022-12-11T02:34:37.425Z,99149.91
2022-12-11T02:37:10.566Z,99153.25
2022-12-11T02:39:41.767Z,99158.19
2022-12-11T02:42:12.444Z,99146.53
2022-12-11T02:44:43.002Z,99158.59
2022-12-11T02:47:16.489Z,99157.97
2022-12-11T02:49:47.831Z,99157.53
2022-12-11T02:52:20.078Z,99143.16
2022-12-11T02:54:49.253Z,99147.06
2022-12-11T02:57:23.237Z,99143.06
2022-12-11T02:59:52.888Z,99148.28
2022-12-11T03:02:21.024Z,99150.66
2022-12-11T03:04:49.633Z,99125.69
2022-12-11T03:07:23.570Z,99142.22
2022-12-11T03:09:52.218Z,99142.72
2022-12-11T03:12:24.329Z,99134.53
2022-12-11T03:14:53.755Z,99131.16
2022-12-11T03:17:24.075Z,99145.22
2022-12-11T03:20:01.510Z,99123.31
2022-12-11T03:22:38.938Z,99124.03
2022-12-11T03:25:11.664Z,99124.75
2022-12-11T03:27:44.920Z,99110.59
2022-12-11T03:30:18.074Z,99103.47
2022-12-11T03:32:53.760Z,99112.19
2022-12-11T03:35:26.865Z,99109.59
2022-12-11T03:37:57.960Z,99119.03
2022-12-11T03:40:27.265Z,99097.47
2022-12-11T03:42:58.677Z,99103.41
2022-12-11T03:45:30.661Z,99089.06
2022-12-11T03:48:02.928Z,99078.88
2022-12-11T03:50:33.768Z,99071.97
2022-12-11T03:53:02.878Z,99072.84
2022-12-11T03:55:33.696Z,99067.19
2022-12-11T03:58:01.854Z,99056.91
2022-12-11T04:00:31.446Z,99043.78
2022-12-11T04:03:14.937Z,99041.88
2022-12-11T04:05:44.712Z,99040.94
2022-12-11T04:08:13.086Z,99021.44
2022-12-11T04:10:41.737Z,99019.03
2022-12-11T04:13:10.283Z,99014.69
2022-12-11T04:15:39.608Z,99018.47
2022-12-11T04:18:22.579Z,99021.00
2022-12-11T04:21:13.654Z,99022.25
2022-12-11T04:23:59.843Z,99022.88
2022-12-11T04:26:28.225Z,99025.41
2022-12-11T04:28:56.245Z,99019.94
2022-12-11T04:31:25.675Z,99005.91
2022-12-11T04:33:53.861Z,99016.41
2022-12-11T04:36:21.849Z,99012.00
2022-12-11T04:38:49.910Z,99004.63
2022-12-11T04:41:18.615Z,98987.13
2022-12-11T04:43:46.847Z,98990.56
2022-12-11T04:46:17.023Z,98991.19
2022-12-11T04:48:51.179Z,98981.84
2022-12-11T04:51:22.016Z,98985.31
2022-12-11T04:53:50.152Z,98983.22
2022-12-11T04:56:18.184Z,98962.44
2022-12-11T04:58:46.731Z,98979.63
2022-12-11T05:01:17.094Z,98983.72
2022-12-11T05:03:46.863Z,98956.31
2022-12-11T05:06:15.454Z,98966.38
2022-12-11T05:08:45.448Z,98962.19
2022-12-11T05:11:15.254Z,98929.88
2022-12-11T05:13:43.708Z,98947.91
2022-12-11T05:16:13.798Z,98935.97
2022-12-11T05:18:41.968Z,98886.00
2022-12-11T05:21:13.110Z,98929.44
2022-12-11T05:23:42.201Z,98902.22
2022-12-11T05:26:13.783Z,98921.31
2022-12-11T05:28:42.318Z,98917.09
2022-12-11T05:31:15.124Z,98910.16
2022-12-11T05:33:43.486Z,98901.44
2022-12-11T05:36:16.966Z,98903.88
2022-12-11T05:38:45.471Z,98903.66
2022-12-11T05:41:15.827Z,98892.41
2022-12-11T05:43:44.008Z,98884.00
2022-12-11T05:46:14.296Z,98883.94
2022-12-11T05:48:43.051Z,98874.63
2022-12-11T05:51:13.219Z,98881.00
2022-12-11T05:53:42.582Z,98880.53
2022-12-11T05:56:13.258Z,98877.53
2022-12-11T05:58:42.230Z,98867.41
2022-12-11T06:01:11.949Z,98848.78
2022-12-11T06:03:40.446Z,98850.50
2022-12-11T06:06:09.708Z,98847.09
2022-12-11T06:08:39.456Z,98834.00
2022-12-11T06:11:08.122Z,98841.66
2022-12-11T06:13:36.930Z,98831.47
2022-12-11T06:16:06.881Z,98828.03
2022-12-11T06:18:37.903Z,98817.41
2022-12-11T06:21:13.916Z,98803.22
2022-12-11T06:23:43.891Z,98819.00
2022-12-11T06:26:12.648Z,98816.56
2022-12-11T06:28:41.410Z,98816.28
2022-12-11T06:31:09.634Z,98820.66
2022-12-11T06:33:38.279Z,98825.50
2022-12-11T06:36:07.888Z,98814.66
2022-12-11T06:38:36.717Z,98798.63
2022-12-11T06:41:08.043Z,98781.91
2022-12-11T06:43:37.527Z,98777.06
2022-12-11T06:46:06.624Z,98765.63
2022-12-11T06:48:34.985Z,98761.44
2022-12-11T06:51:07.715Z,98756.91
2022-12-11T06:53:36.252Z,98758.34
2022-12-11T06:56:08.854Z,98750.72
2022-12-11T06:58:38.635Z,98755.38
2022-12-11T07:01:14.847Z,98742.03
2022-12-11T07:03:43.113Z,98749.53
2022-12-11T07:06:11.680Z,98738.09
2022-12-11T07:08:40.091Z,98742.59
2022-12-11T07:11:12.546Z,98741.69
2022-12-11T07:13:42.159Z,98736.56
2022-12-11T07:16:11.716Z,98714.25
2022-12-11T07:18:40.547Z,98722.59
2022-12-11T07:21:09.055Z,98726.28
2022-12-11T07:23:37.593Z,98730.47
2022-12-11T07:26:06.480Z,98729.53
2022-12-11T07:28:36.535Z,98718.78
2022-12-11T07:31:07.644Z,98722.34
2022-12-11T07:33:35.682Z,98714.72
2022-12-11T07:36:04.536Z,98715.31
2022-12-11T07:38:33.011Z,98717.09
2022-12-11T07:41:02.155Z,98713.28
2022-12-11T07:43:30.594Z,98704.44
2022-12-11T07:46:03.772Z,98706.34
2022-12-11T07:48:31.799Z,98710.41
2022-12-11T07:51:09.627Z,98720.09
2022-12-11T07:53:37.766Z,98722.94
2022-12-11T07:56:06.384Z,98706.69
2022-12-11T07:58:34.534Z,98718.97
2022-12-11T08:01:04.085Z,98713.50
2022-12-11T08:03:32.370Z,98706.81
2022-12-11T08:06:00.317Z,98720.66
2022-12-11T08:08:28.387Z,98724.34
2022-12-11T08:10:56.484Z,98715.38
2022-12-11T08:13:24.853Z,98710.94
2022-12-11T08:15:54.778Z,98718.22
2022-12-11T08:18:25.196Z,98699.56
2022-12-11T08:20:53.427Z,98714.81
2022-12-11T08:23:21.449Z,98708.91
2022-12-11T08:25:49.447Z,98711.31
2022-12-11T08:28:17.906Z,98711.50
2022-12-11T08:30:46.270Z,98715.50
2022-12-11T08:33:14.707Z,98713.47
2022-12-11T08:35:46.778Z,98713.69
2022-12-11T08:38:15.498Z,98713.00
2022-12-11T08:40:43.921Z,98722.44
2022-12-11T08:43:12.007Z,98701.53
2022-12-11T08:45:40.598Z,98707.81
2022-12-11T08:48:08.646Z,98712.75
2022-12-11T08:50:38.305Z,98713.19
2022-12-11T08:53:07.985Z,98706.44
2022-12-11T08:55:36.042Z,98691.28
2022-12-11T08:58:04.081Z,98697.28
2022-12-11T09:00:32.508Z,98695.81
2022-12-11T09:03:01.037Z,98698.44
2022-12-11T09:05:29.139Z,98695.84
2022-12-11T09:07:57.249Z,98695.75
2022-12-11T09:10:27.269Z,98698.53
2022-12-11T09:12:55.240Z,98695.31
2022-12-11T09:15:24.209Z,98689.56
2022-12-11T09:17:52.808Z,98688.66
2022-12-11T09:20:21.612Z,98692.44
2022-12-11T09:22:49.850Z,98686.75
2022-12-11T09:25:17.942Z,98695.09
2022-12-11T09:27:47.495Z,98693.25
2022-12-11T09:30:16.630Z,98669.38
2022-12-11T09:32:44.679Z,98694.97
2022-12-11T09:35:12.878Z,98685.84
2022-12-11T09:37:41.554Z,98690.56
2022-12-11T09:40:11.829Z,98684.41
2022-12-11T09:42:52.182Z,98689.13
2022-12-11T09:45:21.089Z,98670.63
2022-12-11T09:47:53.401Z,98686.59
2022-12-11T09:50:25.242Z,98688.78
2022-12-11T09:53:06.700Z,98692.09
2022-12-11T09:55:42.988Z,98701.41
2022-12-11T09:58:23.522Z,98685.66
2022-12-11T10:00:59.074Z,98687.16
2022-12-11T10:03:52.706Z,98699.28
2022-12-11T10:06:26.974Z,98699.00
2022-12-11T10:09:04.716Z,98695.22
2022-12-11T10:11:54.452Z,98678.69
2022-12-11T10:14:36.439Z,98682.28
2022-12-11T10:17:12.348Z,98682.66
2022-12-11T10:19:42.976Z,98666.50
2022-12-11T10:22:19.432Z,98653.16
2022-12-11T10:25:12.564Z,98673.09
2022-12-11T10:27:41.722Z,98683.88
2022-12-11T10:30:18.162Z,98677.59
2022-12-11T10:32:53.023Z,98674.41
2022-12-11T10:35:34.721Z,98647.56
2022-12-11T10:38:17.160Z,98676.63
2022-12-11T10:40:51.938Z,98674.00
2022-12-11T10:43:20.512Z,98671.97
2022-12-11T10:45:55.034Z,98662.13
2022-12-11T10:48:23.883Z,98657.06
2022-12-11T10:51:03.679Z,98650.22
2022-12-11T10:53:32.775Z,98641.75
2022-12-11T10:56:01.531Z,98654.16
2022-12-11T10:58:34.352Z,98642.53
2022-12-11T11:01:10.662Z,98643.91
2022-12-11T11:03:56.414Z,98637.03
2022-12-11T11:06:26.045Z,98633.94
2022-12-11T11:08:56.595Z,98636.28
2022-12-11T11:11:28.224Z,98636.94
2022-12-11T11:14:14.981Z,98632.88
2022-12-11T11:16:46.711Z,98637.28
2022-12-11T11:19:22.122Z,98642.19
2022-12-11T11:21:55.062Z,98623.31
2022-12-11T11:24:28.433Z,98639.69
2022-12-11T11:27:12.908Z,98622.72
2022-12-11T11:29:42.804Z,98626.78
2022-12-11T11:32:21.551Z,98625.75
2022-12-11T11:34:49.745Z,98621.31
2022-12-11T11:37:27.105Z,98620.88
2022-12-11T11:40:04.417Z,98637.88
2022-12-11T11:42:42.482Z,98635.25
2022-12-11T11:45:16.879Z,98643.84
2022-12-11T11:47:57.904Z,98608.25
2022-12-11T11:50:32.979Z,98637.63
2022-12-11T11:53:06.038Z,98624.47
2022-12-11T11:55:43.851Z,98612.00
2022-12-11T11:58:16.996Z,98624.84
2022-12-11T12:00:45.069Z,98621.50
2022-12-11T12:03:18.077Z,98622.41
2022-12-11T12:05:54.827Z,98583.38
2022-12-11T12:08:34.592Z,98613.09
2022-12-11T12:11:08.692Z,98606.72
2022-12-11T12:13:49.653Z,98592.38
2022-12-11T12:16:52.372Z,98589.75
2022-12-11T12:19:30.440Z,98592.25
2022-12-11T12:22:02.105Z,98591.78
2022-12-11T12:24:38.727Z,98600.41
2022-12-11T12:27:50.473Z,98608.09
2022-12-11T12:30:13.258Z,98610.81
2022-12-11T12:32:54.860Z,98618.63
2022-12-11T12:35:34.206Z,98609.38
2022-12-11T12:38:12.418Z,98613.03
2022-12-11T12:40:51.761Z,98613.72
2022-12-11T12:43:51.641Z,98603.53
2022-12-11T12:46:34.484Z,98599.84
2022-12-11T12:49:03.627Z,98608.16
2022-12-11T12:51:33.595Z,98603.69
2022-12-11T12:54:10.664Z,98609.22
2022-12-11T12:56:45.277Z,98598.94
2022-12-11T12:59:24.387Z,98604.59
2022-12-11T13:01:57.144Z,98594.97
2022-12-11T13:04:58.459Z,98603.59
2022-12-11T13:07:30.921Z,98594.59
2022-12-11T13:10:06.220Z,98593.28
2022-12-11T13:12:45.980Z,98596.63
2022-12-11T13:15:33.422Z,98581.69
2022-12-11T13:18:03.606Z,98586.66
2022-12-11T13:20:33.747Z,98594.97
2022-12-11T13:23:20.769Z,98584.66
2022-12-11T13:25:53.143Z,98590.31
2022-12-11T13:28:27.536Z,98593.97
2022-12-11T13:31:01.805Z,98583.00
2022-12-11T13:33:31.470Z,98582.81
2022-12-11T13:36:24.923Z,98563.72
2022-12-11T13:38:58.067Z,98570.16
2022-12-11T13:41:26.334Z,98565.53
2022-12-11T13:43:55.203Z,98558.69
2022-12-11T13:46:28.263Z,98558.38
2022-12-11T13:49:01.006Z,98556.03
2022-12-11T13:51:32.304Z,98564.03
2022-12-11T13:54:07.180Z,98559.03
2022-12-11T13:56:35.529Z,98555.34
2022-12-11T13:59:03.647Z,98550.31
2022-12-11T14:01:35.418Z,98537.56
2022-12-11T14:04:09.303Z,98555.38
2022-12-11T14:06:40.112Z,98546.72
2022-12-11T14:09:10.506Z,98534.09
2022-12-11T14:11:42.087Z,98545.06
2022-12-11T14:14:20.624Z,98547.06
2022-12-11T14:16:50.316Z,98553.19
2022-12-11T14:19:20.935Z,98549.75
2022-12-11T14:21:59.969Z,98561.53
2022-12-11T14:24:31.634Z,98562.03
2022-12-11T14:27:00.174Z,98568.84
2022-12-11T14:29:30.833Z,98569.66
2022-12-11T14:32:02.829Z,98570.16
2022-12-11T14:34:36.507Z,98576.31
2022-12-11T14:37:08.310Z,98575.66
2022-12-11T14:39:46.038Z,98579.63
2022-12-11T14:42:19.270Z,98582.94
2022-12-11T14:44:51.028Z,98572.00
2022-12-11T14:47:22.552Z,98587.28
2022-12-11T14:49:58.931Z,98587.81
2022-12-11T14:52:32.838Z,98596.97
2022-12-11T14:55:10.637Z,98597.44
2022-12-11T14:57:42.965Z,98599.78
2022-12-11T15:00:23.345Z,98605.25
2022-12-11T15:02:59.589Z,98605.59
2022-12-11T15:05:28.088Z,98621.38
2022-12-11T15:07:59.513Z,98621.84
2022-12-11T15:10:36.669Z,98621.19
2022-12-11T15:13:07.056Z,98634.47
2022-12-11T15:15:47.558Z,98639.75
2022-12-11T15:18:22.220Z,98630.97
2022-12-11T15:20:53.419Z,98638.78
2022-12-11T15:23:24.467Z,98637.78
2022-12-11T15:25:56.011Z,98644.59
2022-12-11T15:28:28.427Z,98643.09
2022-12-11T15:30:59.498Z,98643.38
2022-12-11T15:33:33.869Z,98648.72
2022-12-11T15:36:26.745Z,98666.34
2022-12-11T15:38:54.809Z,98671.97
2022-12-11T15:41:25.133Z,98670.47
2022-12-11T15:43:58.525Z,98673.66
2022-12-11T15:46:27.656Z,98664.31
2022-12-11T15:48:57.866Z,98680.03
2022-12-11T15:51:27.525Z,98681.84
2022-12-11T15:53:55.741Z,98678.56
2022-12-11T15:56:25.174Z,98670.72
2022-12-11T15:58:53.201Z,98665.75
2022-12-11T16:01:21.415Z,98672.69
2022-12-11T16:03:50.406Z,98669.88
2022-12-11T16:06:18.517Z,98680.09
2022-12-11T16:08:46.667Z,98673.69
2022-12-11T16:11:15.682Z,98679.81
2022-12-11T16:13:45.182Z,98683.25
2022-12-11T16:16:13.301Z,98687.91
2022-12-11T16:18:41.308Z,98684.09
2022-12-11T16:21:09.274Z,98690.75
2022-12-11T16:23:37.553Z,98687.78
2022-12-11T16:26:09.766Z,98683.09
2022-12-11T16:28:37.888Z,98689.28
2022-12-11T16:31:11.648Z,98697.25
2022-12-11T16:33:39.830Z,98698.75
2022-12-11T16:36:14.826Z,98703.91
2022-12-11T16:38:51.387Z,98712.19
2022-12-11T16:41:21.704Z,98708.53
2022-12-11T16:43:49.855Z,98707.72
2022-12-11T16:46:20.471Z,98713.22
2022-12-11T16:48:48.543Z,98715.22
2022-12-11T16:51:16.596Z,98707.91
2022-12-11T16:53:44.589Z,98712.72
2022-12-11T16:56:12.878Z,98702.75
2022-12-11T16:58:41.666Z,98709.69
2022-12-11T17:01:12.254Z,98703.56
2022-12-11T17:03:43.199Z,98707.19
2022-12-11T17:06:13.407Z,98708.19
2022-12-11T17:08:42.712Z,98714.31
2022-12-11T17:11:14.480Z,98709.69
2022-12-11T17:13:42.770Z,98713.50
2022-12-11T17:16:13.786Z,98709.75
2022-12-11T17:18:44.489Z,98711.63
2022-12-11T17:21:15.685Z,98718.28
2022-12-11T17:23:43.908Z,98711.16
2022-12-11T17:26:12.158Z,98708.31
2022-12-11T17:28:40.831Z,98712.47
2022-12-11T17:31:10.458Z,98707.81
2022-12-11T17:33:38.763Z,98708.50
2022-12-11T17:36:09.615Z,98716.16
2022-12-11T17:38:37.667Z,98707.06
2022-12-11T17:41:07.861Z,98707.72
2022-12-11T17:43:36.368Z,98714.50
2022-12-11T17:46:05.486Z,98709.34
2022-12-11T17:48:36.851Z,98710.84
2022-12-11T17:51:06.739Z,98720.03
2022-12-11T17:53:37.587Z,98719.03
2022-12-11T17:56:07.683Z,98704.84
2022-12-11T17:58:35.966Z,98717.34
2022-12-11T18:01:08.484Z,98714.59
2022-12-11T18:03:37.035Z,98714.78
2022-12-11T18:06:07.829Z,98719.47
2022-12-11T18:08:37.651Z,98729.09
2022-12-11T18:11:07.050Z,98721.25
2022-12-11T18:13:35.451Z,98730.28
2022-12-11T18:16:05.868Z,98731.28
2022-12-11T18:18:35.611Z,98715.50
2022-12-11T18:21:03.968Z,98734.47
2022-12-11T18:23:32.364Z,98745.97
2022-12-11T18:26:01.884Z,98753.94
2022-12-11T18:28:32.313Z,98747.63
2022-12-11T18:31:01.778Z,98734.97
2022-12-11T18:33:31.166Z,98763.50
2022-12-11T18:35:59.484Z,98757.00
2022-12-11T18:38:27.820Z,98765.34
2022-12-11T18:40:56.017Z,98747.91
2022-12-11T18:43:25.722Z,98737.09
2022-12-11T18:45:53.812Z,98726.81
2022-12-11T18:48:22.064Z,98763.19
2022-12-11T18:50:51.936Z,98716.56
2022-12-11T18:53:20.899Z,98756.22
2022-12-11T18:55:50.025Z,98757.53
2022-12-11T18:58:20.642Z,98763.94
2022-12-11T19:00:50.197Z,98758.09
2022-12-11T19:03:20.923Z,98735.72
2022-12-11T19:05:49.046Z,98758.66
2022-12-11T19:08:17.825Z,98748.47
2022-12-11T19:10:47.614Z,98734.06
2022-12-11T19:13:17.187Z,98732.53
2022-12-11T19:15:45.837Z,98760.34
2022-12-11T19:18:15.498Z,98758.03
2022-12-11T19:20:57.794Z,98759.66
2022-12-11T19:23:31.845Z,98761.72
2022-12-11T19:25:59.938Z,98769.75
2022-12-11T19:28:27.931Z,98769.22
2022-12-11T19:30:56.074Z,98779.97
2022-12-11T19:33:25.849Z,98769.44
2022-12-11T19:36:02.208Z,98778.84
2022-12-11T19:38:30.283Z,98761.50
2022-12-11T19:40:58.305Z,98786.41
2022-12-11T19:43:26.579Z,98754.28
2022-12-11T19:45:57.694Z,98785.16
2022-12-11T19:48:27.379Z,98768.97
2022-12-11T19:50:55.851Z,98798.88
2022-12-11T19:53:25.803Z,98783.84
2022-12-11T19:55:54.628Z,98778.41
2022-12-11T19:58:22.857Z,98801.81
2022-12-11T20:00:55.871Z,98806.31
2022-12-11T20:03:26.910Z,98805.66
2022-12-11T20:06:02.791Z,98806.59
2022-12-11T20:08:46.721Z,98806.97
2022-12-11T20:11:18.873Z,98815.44
2022-12-11T20:13:47.555Z,98818.16
2022-12-11T20:16:17.793Z,98813.47
2022-12-11T20:18:46.330Z,98802.78
2022-12-11T20:21:20.055Z,98825.00
2022-12-11T20:23:48.874Z,98817.28
2022-12-11T20:26:18.913Z,98822.34
2022-12-11T20:28:51.107Z,98824.47
2022-12-11T20:31:24.482Z,98822.50
2022-12-11T20:33:54.278Z,98816.22
2022-12-11T20:36:25.838Z,98822.34
2022-12-11T20:38:54.404Z,98811.78
2022-12-11T20:41:24.464Z,98820.59
2022-12-11T20:43:54.383Z,98808.56
2022-12-11T20:46:25.123Z,98823.41
2022-12-11T20:48:54.316Z,98838.81
2022-12-11T20:51:26.382Z,98789.91
2022-12-11T20:53:59.236Z,98796.91
2022-12-11T20:56:32.283Z,98831.06
2022-12-11T20:59:01.573Z,98822.50
2022-12-11T21:01:32.813Z,98817.72
2022-12-11T21:04:01.953Z,98804.47
2022-12-11T21:06:33.824Z,98795.97
2022-12-11T21:09:05.349Z,98846.91
2022-12-11T21:11:33.581Z,98844.88
2022-12-11T21:14:01.909Z,98844.03
2022-12-11T21:16:29.945Z,98848.28
2022-12-11T21:18:58.864Z,98835.69
2022-12-11T21:21:27.216Z,98827.56
2022-12-11T21:23:56.766Z,98849.44
2022-12-11T21:26:25.151Z,98842.47
2022-12-11T21:28:53.882Z,98872.31
2022-12-11T21:31:23.119Z,98867.50
2022-12-11T21:33:51.958Z,98885.34
2022-12-11T21:36:20.267Z,98852.72
2022-12-11T21:38:48.852Z,98879.09
2022-12-11T21:41:21.228Z,98854.38
2022-12-11T21:45:06.960Z,98885.53
2022-12-11T21:46:41.602Z,98889.31
2022-12-11T21:49:10.164Z,98904.09
2022-12-11T21:51:46.888Z,98908.88
2022-12-11T21:54:18.198Z,98856.63
2022-12-11T21:56:48.195Z,98913.97
2022-12-11T21:59:16.955Z,98900.59
2022-12-11T22:01:47.167Z,98916.59
2022-12-11T22:04:16.288Z,98914.03
2022-12-11T22:06:47.236Z,98933.97
2022-12-11T22:09:16.394Z,98903.72
2022-12-11T22:11:45.261Z,98891.53
2022-12-11T22:14:15.562Z,98929.19
2022-12-11T22:16:44.529Z,98926.38
2022-12-11T22:19:13.620Z,98916.31
2022-12-11T22:21:41.922Z,98936.94
2022-12-11T22:24:10.500Z,98922.84
2022-12-11T22:26:38.582Z,98944.78
2022-12-11T22:29:06.801Z,98943.53
2022-12-11T22:31:39.108Z,98946.16
2022-12-11T22:34:07.339Z,98943.91
2022-12-11T22:36:35.603Z,98954.22
2022-12-11T22:39:03.779Z,98940.56
2022-12-11T22:41:33.811Z,98953.06
2022-12-11T22:44:02.403Z,98948.91
2022-12-11T22:46:31.733Z,98929.19
2022-12-11T22:49:01.057Z,98934.19
2022-12-11T22:51:29.146Z,98957.09
2022-12-11T22:53:57.406Z,98946.16
2022-12-11T22:56:28.381Z,98926.47
2022-12-11T22:58:59.754Z,98943.94
2022-12-11T23:01:29.216Z,98969.34
2022-12-11T23:03:57.328Z,98976.09
2022-12-11T23:06:26.797Z,98972.75
2022-12-11T23:08:59.468Z,98957.63
2022-12-11T23:11:29.930Z,98963.34
2022-12-11T23:13:59.135Z,98987.88
2022-12-11T23:16:28.144Z,98990.09
2022-12-11T23:18:56.920Z,98965.63
2022-12-11T23:21:28.403Z,98995.28
2022-12-11T23:23:56.925Z,98987.63
2022-12-11T23:26:27.323Z,98965.13
2022-12-11T23:28:56.558Z,98989.09
2022-12-11T23:31:25.293Z,98991.31
2022-12-11T23:33:53.912Z,99001.63
2022-12-11T23:36:22.125Z,98998.13
2022-12-11T23:38:54.827Z,98986.16
2022-12-11T23:41:24.337Z,99003.69
2022-12-11T23:43:52.874Z,98990.22
2022-12-11T23:46:22.982Z,99009.28
2022-12-11T23:48:51.315Z,99035.44
2022-12-11T23:51:21.790Z,99034.47
2022-12-11T23:53:52.028Z,99034.91
2022-12-11T23:56:22.710Z,99002.56
2022-12-11T23:58:51.192Z,99025.69
